Time,TemperatureF,DewpointF,PressureIn,WindDirection,WindDirectionDegrees,WindSpeedMPH,WindSpeedGustMPH,Humidity,HourlyPrecipIn,Conditions,Clouds,dailyrainin,SolarRadiationWatts/m^2,SoftwareType,DateUTC
2013-01-10 00:00:00,43.0,33.9,30.06,NNE,26,3.1,3.5,70,0.00,,,0.01,0.0,WeatherDisplay:10.37,2013-01-10 08:00:00,
2013-01-10 00:05:00,43.0,33.5,30.06,NNE,32,0.0,0.0,69,0.00,RA,,0.00,0.0,WeatherDisplay:10.37,2013-01-10 08:05:00,
2013-01-10 00:10:00,43.0,33.5,30.07,NE,39,2.7,2.7,69,0.00,RA,,0.00,0.0,WeatherDisplay:10.37,2013-01-10 08:10:00,
2013-01-10 00:15:00,42.9,33.4,30.07,NE,36,3.2,4.6,69,0.00,,,0.00,0.0,WeatherDisplay:10.37,2013-01-10 08:15:00,
2013-01-10 00:20:00,42.8,33.3,30.07,East,97,1.0,5.8,69,0.00,,,0.00,0.0,WeatherDisplay:10.37,2013-01-10 08:20:00,
2013-01-10 00:25:00,42.5,33.4,30.06,East,97,1.4,2.3,70,0.00,,,0.00,0.0,WeatherDisplay:10.37,2013-01-10 08:25:00,
2013-01-10 00:30:00,42.5,33.4,30.07,WNW,286,0.9,4.6,70,0.00,,,0.00,0.0,WeatherDisplay:10.37,2013-01-10 08:30:00,
2013-01-10 00:35:00,42.4,33.3,30.07,WNW,286,0.0,0.0,70,0.00,,,0.00,0.0,WeatherDisplay:10.37,2013-01-10 08:35:00,
2013-01-10 00:40:00,42.3,33.2,30.07,WNW,286,1.0,2.3,70,0.00,,,0.00,0.0,WeatherDisplay:10.37,2013-01-10 08:40:00,
2013-01-10 00:45:00,42.2,33.1,30.07,WNW,286,0.0,0.0,70,0.00,,,0.00,0.0,WeatherDisplay:10.37,2013-01-10 08:45:00,
2013-01-10 00:50:00,41.9,32.8,30.07,WNW,286,0.1,1.1,70,0.00,,,0.00,0.0,WeatherDisplay:10.37,2013-01-10 08:50:00,
2013-01-10 00:55:00,41.7,33.0,30.07,SE,145,1.0,2.3,71,0.00,,,0.00,0.0,WeatherDisplay:10.37,2013-01-10 08:55:00,
2013-01-10 01:00:00,41.7,32.6,30.07,SE,145,0.0,1.1,70,0.00,,,0.00,0.0,WeatherDisplay:10.37,2013-01-10 09:00:00,
2013-01-10 01:05:00,41.3,32.6,30.07,SE,142,0.0,2.3,71,0.00,,,0.00,0.0,WeatherDisplay:10.37,2013-01-10 09:05:00,
2013-01-10 01:10:00,41.2,32.9,30.07,SE,142,0.0,0.0,72,0.00,,,0.00,0.0,WeatherDisplay:10.37,2013-01-10 09:10:00,
2013-01-10 01:15:00,41.1,32.8,30.08,SE,142,0.0,0.0,72,0.00,,,0.00,0.0,WeatherDisplay:10.37,2013-01-10 09:15:00,
2013-01-10 01:20:00,40.8,32.5,30.08,SE,142,0.0,0.0,72,0.00,,,0.00,0.0,WeatherDisplay:10.37,2013-01-10 09:20:00,
2013-01-10 01:25:00,40.8,32.5,30.07,SE,142,0.0,0.0,72,0.00,,,0.00,0.0,WeatherDisplay:10.37,2013-01-10 09:25:00,
2013-01-10 01:30:00,40.4,32.4,30.07,SE,142,0.0,0.0,73,0.00,,,0.00,0.0,WeatherDisplay:10.37,2013-01-10 09:30:00,
2013-01-10 01:35:00,40.4,32.4,30.08,SE,142,0.1,1.1,73,0.00,,,0.00,0.0,WeatherDisplay:10.37,2013-01-10 09:35:00,
2013-01-10 01:40:00,40.5,32.2,30.08,SE,142,0.5,2.3,72,0.00,,,0.00,0.0,WeatherDisplay:10.37,2013-01-10 09:40:00,
2013-01-10 01:45:00,40.6,32.3,30.08,SE,142,0.0,0.0,72,0.00,,,0.00,0.0,WeatherDisplay:10.37,2013-01-10 09:45:00,
2013-01-10 01:50:00,40.5,32.2,30.07,SE,142,0.0,0.0,72,0.00,,,0.00,0.0,WeatherDisplay:10.37,2013-01-10 09:50:00,
2013-01-10 01:55:00,40.4,32.1,30.08,SE,142,0.0,0.0,72,0.00,,,0.00,0.0,WeatherDisplay:10.37,2013-01-10 09:55:00,
2013-01-10 02:00:00,40.3,32.0,30.08,SE,142,0.0,0.0,72,0.00,,,0.00,0.0,WeatherDisplay:10.37,2013-01-10 10:00:00,
2013-01-10 02:05:00,40.4,32.1,30.08,SE,142,0.0,0.0,72,0.00,,,0.00,0.0,WeatherDisplay:10.37,2013-01-10 10:05:00,
2013-01-10 02:10:00,40.2,31.9,30.08,SE,142,0.0,0.0,72,0.00,,,0.00,0.0,WeatherDisplay:10.37,2013-01-10 10:10:00,
2013-01-10 02:15:00,39.8,31.8,30.08,SE,142,0.0,0.0,73,0.00,,,0.00,0.0,WeatherDisplay:10.37,2013-01-10 10:15:00,
2013-01-10 02:20:00,39.8,32.2,30.08,SE,142,0.6,1.1,74,0.00,,,0.00,0.0,WeatherDisplay:10.37,2013-01-10 10:20:00,
2013-01-10 02:25:00,40.2,32.6,30.08,SE,142,0.0,0.0,74,0.00,,,0.00,0.0,WeatherDisplay:10.37,2013-01-10 10:25:00,
2013-01-10 02:30:00,40.6,32.6,30.08,WSW,257,0.4,1.1,73,0.00,,,0.00,0.0,WeatherDisplay:10.37,2013-01-10 10:30:00,
2013-01-10 02:35:00,41.1,32.8,30.08,WSW,257,0.0,0.0,72,0.00,,,0.00,0.0,WeatherDisplay:10.37,2013-01-10 10:35:00,
2013-01-10 02:40:00,41.1,32.4,30.08,WSW,258,0.2,2.3,71,0.00,,,0.00,0.0,WeatherDisplay:10.37,2013-01-10 10:40:00,
2013-01-10 02:45:00,40.5,32.2,30.08,WSW,258,0.2,1.1,72,0.00,,,0.00,0.0,WeatherDisplay:10.37,2013-01-10 10:45:00,
2013-01-10 02:50:00,39.7,32.1,30.08,WSW,257,0.7,1.1,74,0.00,,,0.00,0.0,WeatherDisplay:10.37,2013-01-10 10:50:00,
2013-01-10 02:55:00,39.1,31.8,30.08,WSW,258,0.0,0.0,75,0.00,,,0.00,0.0,WeatherDisplay:10.37,2013-01-10 10:55:00,
2013-01-10 03:00:00,38.6,31.7,30.09,WSW,258,0.8,1.0,76,0.00,,,0.00,0.0,WeatherDisplay:10.37,2013-01-10 11:00:00,
2013-01-10 03:05:00,39.0,32.4,30.09,WSW,258,0.4,1.1,77,0.00,,,0.00,0.0,WeatherDisplay:10.37,2013-01-10 11:05:00,
2013-01-10 03:10:00,39.3,32.4,30.08,WSW,258,0.0,0.0,76,0.00,,,0.00,0.0,WeatherDisplay:10.37,2013-01-10 11:10:00,
2013-01-10 03:15:00,39.0,32.1,30.08,WSW,258,0.4,0.0,76,0.00,,,0.00,0.0,WeatherDisplay:10.37,2013-01-10 11:15:00,
2013-01-10 03:20:00,39.1,32.5,30.08,WSW,258,0.0,0.0,77,0.00,,,0.00,0.0,WeatherDisplay:10.37,2013-01-10 11:20:00,
2013-01-10 03:25:00,38.7,32.1,30.08,WSW,257,1.2,1.2,77,0.00,,,0.00,0.0,WeatherDisplay:10.37,2013-01-10 11:25:00,
2013-01-10 03:30:00,38.3,32.0,30.08,WSW,258,0.0,0.0,78,0.00,,,0.00,0.0,WeatherDisplay:10.37,2013-01-10 11:30:00,
2013-01-10 03:35:00,38.6,32.6,30.08,WSW,258,3.4,4.6,79,0.00,,,0.00,0.0,WeatherDisplay:10.37,2013-01-10 11:35:00,
2013-01-10 03:40:00,39.2,32.9,30.08,West,259,2.7,3.5,78,0.00,,,0.00,0.0,WeatherDisplay:10.37,2013-01-10 11:40:00,
2013-01-10 03:45:00,40.0,33.4,30.08,WNW,282,0.0,0.0,77,0.00,,,0.00,0.0,WeatherDisplay:10.37,2013-01-10 11:45:00,
2013-01-10 03:50:00,39.6,32.3,30.08,WNW,282,1.0,2.3,75,0.00,,,0.00,0.0,WeatherDisplay:10.37,2013-01-10 11:50:00,
2013-01-10 03:55:00,38.9,32.0,30.08,WNW,282,0.4,2.3,76,0.00,,,0.00,0.0,WeatherDisplay:10.37,2013-01-10 11:55:00,
2013-01-10 04:00:00,38.4,32.1,30.08,WNW,282,0.0,0.0,78,0.00,,,0.00,0.0,WeatherDisplay:10.37,2013-01-10 12:00:00,
2013-01-10 04:05:00,38.2,31.9,30.08,West,281,0.0,0.0,78,0.00,,,0.00,0.0,WeatherDisplay:10.37,2013-01-10 12:05:00,
2013-01-10 04:10:00,38.1,32.2,30.08,WNW,282,0.0,0.0,79,0.00,,,0.00,0.0,WeatherDisplay:10.37,2013-01-10 12:10:00,
2013-01-10 04:15:00,38.2,32.3,30.08,WNW,282,0.0,0.0,79,0.00,,,0.00,0.0,WeatherDisplay:10.37,2013-01-10 12:15:00,
2013-01-10 04:20:00,38.3,32.4,30.07,West,281,0.0,0.0,79,0.00,,,0.00,0.0,WeatherDisplay:10.37,2013-01-10 12:20:00,
2013-01-10 04:25:00,38.1,32.2,30.07,WNW,282,0.0,0.0,79,0.00,,,0.00,0.0,WeatherDisplay:10.37,2013-01-10 12:25:00,
2013-01-10 04:30:00,38.2,32.3,30.07,West,281,0.0,0.0,79,0.00,,,0.00,0.0,WeatherDisplay:10.37,2013-01-10 12:30:00,
2013-01-10 04:35:00,38.5,32.6,30.07,WNW,282,0.0,0.0,79,0.00,,,0.00,0.0,WeatherDisplay:10.37,2013-01-10 12:35:00,
2013-01-10 04:40:00,38.3,32.4,30.07,West,281,0.0,0.0,79,0.00,,,0.00,0.0,WeatherDisplay:10.37,2013-01-10 12:40:00,
2013-01-10 04:45:00,38.1,32.2,30.07,West,281,0.0,0.0,79,0.00,,,0.00,0.0,WeatherDisplay:10.37,2013-01-10 12:45:00,
2013-01-10 04:50:00,38.2,32.6,30.08,WNW,282,0.0,0.0,80,0.00,,,0.00,0.0,WeatherDisplay:10.37,2013-01-10 12:50:00,
2013-01-10 04:55:00,38.2,32.6,30.08,WNW,282,0.0,0.0,80,0.00,,,0.00,0.0,WeatherDisplay:10.37,2013-01-10 12:55:00,
2013-01-10 05:00:00,38.0,32.4,30.08,WNW,282,0.0,0.0,80,0.00,,,0.00,0.0,WeatherDisplay:10.37,2013-01-10 13:00:00,
2013-01-10 05:05:00,38.0,32.4,30.08,West,281,0.0,0.0,80,0.00,,,0.00,0.0,WeatherDisplay:10.37,2013-01-10 13:05:00,
2013-01-10 05:10:00,37.4,31.8,30.08,WNW,282,0.0,0.0,80,0.00,,,0.00,0.0,WeatherDisplay:10.37,2013-01-10 13:10:00,
2013-01-10 05:15:00,37.0,31.7,30.08,WNW,282,0.0,0.0,81,0.00,,,0.00,0.0,WeatherDisplay:10.37,2013-01-10 13:15:00,
2013-01-10 05:20:00,36.6,31.3,30.08,West,281,0.0,0.0,81,0.00,,,0.00,0.0,WeatherDisplay:10.37,2013-01-10 13:20:00,
2013-01-10 05:25:00,36.6,31.9,30.08,WNW,282,0.0,0.0,83,0.00,,,0.00,0.0,WeatherDisplay:10.37,2013-01-10 13:25:00,
2013-01-10 05:30:00,36.4,31.7,30.09,WNW,282,0.0,0.0,83,0.00,,,0.00,0.0,WeatherDisplay:10.37,2013-01-10 13:30:00,
2013-01-10 05:35:00,36.2,31.5,30.09,West,281,0.0,0.0,83,0.00,,,0.00,0.0,WeatherDisplay:10.37,2013-01-10 13:35:00,
2013-01-10 05:40:00,36.1,31.7,30.09,West,281,0.0,0.0,84,0.00,,,0.00,0.0,WeatherDisplay:10.37,2013-01-10 13:40:00,
2013-01-10 05:45:00,36.0,31.6,30.09,WNW,282,0.0,2.3,84,0.00,,,0.00,0.0,WeatherDisplay:10.37,2013-01-10 13:45:00,
2013-01-10 05:50:00,36.1,31.7,30.09,West,281,0.0,0.0,84,0.00,,,0.00,0.0,WeatherDisplay:10.37,2013-01-10 13:50:00,
2013-01-10 05:55:00,36.3,32.2,30.09,WNW,282,0.4,2.3,85,0.00,,,0.00,0.0,WeatherDisplay:10.37,2013-01-10 13:55:00,
2013-01-10 06:00:00,36.7,32.6,30.09,WNW,282,0.0,0.0,85,0.00,,,0.00,0.0,WeatherDisplay:10.37,2013-01-10 14:00:00,
2013-01-10 06:05:00,36.8,32.4,30.09,WNW,282,0.0,0.0,84,0.00,,,0.00,0.0,WeatherDisplay:10.37,2013-01-10 14:05:00,
2013-01-10 06:10:00,36.6,32.2,30.09,West,281,0.0,0.0,84,0.00,,,0.00,0.0,WeatherDisplay:10.37,2013-01-10 14:10:00,
2013-01-10 06:15:00,36.8,32.4,30.09,West,281,0.2,0.0,84,0.00,,,0.00,0.0,WeatherDisplay:10.37,2013-01-10 14:15:00,
2013-01-10 06:20:00,36.7,32.3,30.09,West,259,2.2,6.9,84,0.00,,,0.00,0.0,WeatherDisplay:10.37,2013-01-10 14:20:00,
2013-01-10 06:25:00,36.8,33.9,30.09,NW,321,0.0,0.0,89,0.00,,,0.00,0.0,WeatherDisplay:10.37,2013-01-10 14:25:00,
2013-01-10 06:30:00,36.8,32.4,30.09,NW,321,0.7,2.3,84,0.00,,,0.00,0.0,WeatherDisplay:10.37,2013-01-10 14:30:00,
2013-01-10 06:35:00,36.5,32.4,30.09,West,278,2.6,5.8,85,0.00,,,0.00,0.0,WeatherDisplay:10.37,2013-01-10 14:35:00,
2013-01-10 06:40:00,37.2,33.1,30.08,West,278,0.5,2.3,85,0.00,,,0.00,0.0,WeatherDisplay:10.37,2013-01-10 14:40:00,
2013-01-10 06:45:00,37.7,33.3,30.08,West,265,3.0,3.5,84,0.00,,,0.00,0.0,WeatherDisplay:10.37,2013-01-10 14:45:00,
2013-01-10 06:50:00,38.6,33.9,30.08,West,281,1.1,3.5,83,0.00,,,0.00,0.0,WeatherDisplay:10.37,2013-01-10 14:50:00,
2013-01-10 06:55:00,39.0,34.0,30.08,West,281,0.0,2.3,82,0.00,,,0.00,0.0,WeatherDisplay:10.37,2013-01-10 14:55:00,
2013-01-10 07:00:00,39.2,33.5,30.08,West,281,0.0,2.3,80,0.00,,,0.00,0.0,WeatherDisplay:10.37,2013-01-10 15:00:00,
2013-01-10 07:05:00,39.5,33.5,30.08,West,275,1.9,3.5,79,0.00,,,0.00,0.0,WeatherDisplay:10.37,2013-01-10 15:05:00,
2013-01-10 07:10:00,39.8,33.5,30.08,WNW,287,2.0,4.6,78,0.00,,,0.00,0.0,WeatherDisplay:10.37,2013-01-10 15:10:00,
2013-01-10 07:15:00,40.1,33.1,30.08,NW,314,1.3,5.8,76,0.00,,,0.00,0.0,WeatherDisplay:10.37,2013-01-10 15:15:00,
2013-01-10 07:20:00,40.2,32.9,30.08,West,275,1.3,5.8,75,0.00,,,0.00,0.0,WeatherDisplay:10.37,2013-01-10 15:20:00,
2013-01-10 07:25:00,40.0,32.7,30.09,West,276,0.0,0.0,75,0.00,,,0.00,0.0,WeatherDisplay:10.37,2013-01-10 15:25:00,
2013-01-10 07:30:00,39.4,32.5,30.09,West,276,0.0,0.0,76,0.00,,,0.00,5.0,WeatherDisplay:10.37,2013-01-10 15:30:00,
2013-01-10 07:35:00,39.1,32.2,30.09,West,276,0.0,1.1,76,0.00,CLR,,0.00,9.0,WeatherDisplay:10.37,2013-01-10 15:35:00,
2013-01-10 07:40:00,38.9,32.3,30.09,West,276,0.0,0.0,77,0.00,FEW,,0.00,14.0,WeatherDisplay:10.37,2013-01-10 15:40:00,
2013-01-10 07:45:00,38.9,32.3,30.10,NW,306,0.5,0.0,77,0.00,SCT,,0.00,16.0,WeatherDisplay:10.37,2013-01-10 15:45:00,
2013-01-10 07:50:00,38.7,32.4,30.10,NW,307,0.7,2.3,78,0.00,SCT,,0.00,19.0,WeatherDisplay:10.37,2013-01-10 15:50:00,
2013-01-10 07:55:00,39.3,33.0,30.10,West,280,1.4,3.5,78,0.00,FEW,,0.00,35.0,WeatherDisplay:10.37,2013-01-10 15:55:00,
2013-01-10 08:00:00,39.8,32.8,30.10,West,280,0.4,2.3,76,0.00,FEW,,0.00,47.0,WeatherDisplay:10.37,2013-01-10 16:00:00,
2013-01-10 08:05:00,39.8,32.8,30.10,WNW,287,0.9,3.5,76,0.00,CLR,,0.00,60.0,WeatherDisplay:10.37,2013-01-10 16:05:00,
2013-01-10 08:10:00,39.6,33.0,30.10,WNW,287,1.9,3.5,77,0.00,CLR,,0.00,72.0,WeatherDisplay:10.37,2013-01-10 16:10:00,
2013-01-10 08:15:00,39.8,33.2,30.10,NNW,346,0.0,0.0,77,0.00,CLR,,0.00,88.0,WeatherDisplay:10.37,2013-01-10 16:15:00,
2013-01-10 08:20:00,40.3,33.3,30.10,NNW,346,0.0,0.0,76,0.00,CLR,,0.00,107.0,WeatherDisplay:10.37,2013-01-10 16:20:00,
2013-01-10 08:25:00,40.7,33.7,30.10,NNW,346,0.4,2.3,76,0.00,CLR,,0.00,123.0,WeatherDisplay:10.37,2013-01-10 16:25:00,
2013-01-10 08:30:00,41.3,34.0,30.10,NNW,346,0.2,1.1,75,0.00,CLR,,0.00,141.0,WeatherDisplay:10.37,2013-01-10 16:30:00,
2013-01-10 08:35:00,42.0,33.6,30.11,North,349,0.6,3.5,72,0.00,CLR,,0.00,156.0,WeatherDisplay:10.37,2013-01-10 16:35:00,
2013-01-10 08:40:00,42.6,33.1,30.10,SW,230,1.0,8.1,69,0.00,CLR,,0.00,179.0,WeatherDisplay:10.37,2013-01-10 16:40:00,
2013-01-10 08:45:00,43.0,33.5,30.11,North,349,1.5,3.5,69,0.00,CLR,,0.00,199.0,WeatherDisplay:10.37,2013-01-10 16:45:00,
2013-01-10 08:50:00,43.1,33.3,30.11,NNE,18,2.8,4.6,68,0.00,CLR,,0.00,213.0,WeatherDisplay:10.37,2013-01-10 16:50:00,
2013-01-10 08:55:00,43.0,33.2,30.11,NNE,18,4.1,6.9,68,0.00,CLR,,0.00,232.0,WeatherDisplay:10.37,2013-01-10 16:55:00,
2013-01-10 09:00:00,43.1,33.3,30.11,NNE,13,4.1,6.9,68,0.00,CLR,,0.00,246.0,WeatherDisplay:10.37,2013-01-10 17:00:00,
2013-01-10 09:05:00,43.4,33.2,30.11,North,11,3.3,3.5,67,0.00,CLR,,0.00,227.0,WeatherDisplay:10.37,2013-01-10 17:05:00,
2013-01-10 09:10:00,43.7,33.1,30.11,NNE,20,3.8,6.9,66,0.00,CLR,,0.00,279.0,WeatherDisplay:10.37,2013-01-10 17:10:00,
2013-01-10 09:15:00,44.0,33.4,30.11,NNE,26,1.3,3.5,66,0.00,CLR,,0.00,288.0,WeatherDisplay:10.37,2013-01-10 17:15:00,
2013-01-10 09:20:00,44.2,33.2,30.11,NNE,14,5.0,6.9,65,0.00,CLR,,0.00,308.0,WeatherDisplay:10.37,2013-01-10 17:20:00,
2013-01-10 09:25:00,44.5,33.1,30.11,NNE,26,3.0,5.8,64,0.00,CLR,,0.00,320.0,WeatherDisplay:10.37,2013-01-10 17:25:00,
2013-01-10 09:30:00,45.0,33.2,30.11,North,5,3.9,5.8,63,0.00,CLR,,0.00,334.0,WeatherDisplay:10.37,2013-01-10 17:30:00,
2013-01-10 09:35:00,45.3,33.0,30.11,West,267,1.7,1.7,62,0.00,CLR,,0.00,350.0,WeatherDisplay:10.37,2013-01-10 17:35:00,
2013-01-10 09:40:00,45.7,33.4,30.11,NE,37,3.0,8.1,62,0.00,CLR,,0.00,362.0,WeatherDisplay:10.37,2013-01-10 17:40:00,
2013-01-10 09:45:00,45.8,33.1,30.11,NNW,344,1.1,2.3,61,0.00,CLR,,0.00,373.0,WeatherDisplay:10.37,2013-01-10 17:45:00,
2013-01-10 09:50:00,46.2,33.5,30.12,West,279,2.8,6.9,61,0.00,CLR,,0.00,383.0,WeatherDisplay:10.37,2013-01-10 17:50:00,
2013-01-10 09:55:00,46.3,33.2,30.11,North,5,1.7,5.8,60,0.00,CLR,,0.00,397.0,WeatherDisplay:10.37,2013-01-10 17:55:00,
2013-01-10 10:00:00,46.6,33.4,30.11,North,355,3.3,8.1,60,0.00,CLR,,0.00,410.0,WeatherDisplay:10.37,2013-01-10 18:00:00,
2013-01-10 10:05:00,46.7,33.1,30.11,West,270,3.7,5.8,59,0.00,CLR,,0.00,420.0,WeatherDisplay:10.37,2013-01-10 18:05:00,
2013-01-10 10:10:00,46.6,32.6,30.11,NW,323,4.8,8.1,58,0.00,CLR,,0.00,432.0,WeatherDisplay:10.37,2013-01-10 18:10:00,
2013-01-10 10:15:00,46.9,32.4,30.11,North,355,6.5,6.9,57,0.00,CLR,,0.00,441.0,WeatherDisplay:10.37,2013-01-10 18:15:00,
2013-01-10 10:20:00,47.2,33.2,30.11,NNE,26,1.6,5.8,58,0.00,CLR,,0.00,454.0,WeatherDisplay:10.37,2013-01-10 18:20:00,
2013-01-10 10:25:00,47.6,32.7,30.11,NNE,18,1.4,2.3,56,0.00,CLR,,0.00,462.0,WeatherDisplay:10.37,2013-01-10 18:25:00,
2013-01-10 10:30:00,47.5,32.1,30.11,NW,310,4.9,9.2,55,0.00,CLR,,0.00,473.0,WeatherDisplay:10.37,2013-01-10 18:30:00,
2013-01-10 10:35:00,47.8,32.4,30.11,North,360,3.2,8.1,55,0.00,CLR,,0.00,482.0,WeatherDisplay:10.37,2013-01-10 18:35:00,
2013-01-10 10:40:00,48.1,32.2,30.11,NW,306,2.5,5.8,54,0.00,CLR,,0.00,492.0,WeatherDisplay:10.37,2013-01-10 18:40:00,
2013-01-10 10:45:00,48.2,32.3,30.11,NW,309,1.7,3.5,54,0.00,CLR,,0.00,499.0,WeatherDisplay:10.37,2013-01-10 18:45:00,
2013-01-10 10:50:00,48.2,32.3,30.11,NNW,337,4.2,4.2,54,0.00,CLR,,0.00,508.0,WeatherDisplay:10.37,2013-01-10 18:50:00,
2013-01-10 10:55:00,48.1,32.2,30.11,West,277,2.5,3.5,54,0.00,CLR,,0.00,515.0,WeatherDisplay:10.37,2013-01-10 18:55:00,
2013-01-10 11:00:00,47.9,31.6,30.11,WSW,238,2.9,10.4,53,0.00,CLR,,0.00,520.0,WeatherDisplay:10.37,2013-01-10 19:00:00,
2013-01-10 11:05:00,47.9,32.0,30.11,ENE,65,3.4,8.1,54,0.00,CLR,,0.00,527.0,WeatherDisplay:10.37,2013-01-10 19:05:00,
2013-01-10 11:10:00,48.1,32.2,30.11,North,351,3.3,6.9,54,0.00,CLR,,0.00,536.0,WeatherDisplay:10.37,2013-01-10 19:10:00,
2013-01-10 11:15:00,48.3,31.9,30.10,NNW,342,1.3,6.9,53,0.00,CLR,,0.00,540.0,WeatherDisplay:10.37,2013-01-10 19:15:00,
2013-01-10 11:20:00,48.6,31.8,30.10,NNW,348,6.9,15.0,52,0.00,CLR,,0.00,547.0,WeatherDisplay:10.37,2013-01-10 19:20:00,
2013-01-10 11:25:00,48.7,32.3,30.10,NNW,344,4.9,9.2,53,0.00,CLR,,0.00,552.0,WeatherDisplay:10.37,2013-01-10 19:25:00,
2013-01-10 11:30:00,49.3,32.4,30.10,West,272,3.8,9.2,52,0.00,CLR,,0.00,561.0,WeatherDisplay:10.37,2013-01-10 19:30:00,
2013-01-10 11:35:00,49.2,31.8,30.10,North,349,2.5,4.6,51,0.00,CLR,,0.00,591.0,WeatherDisplay:10.37,2013-01-10 19:35:00,
2013-01-10 11:40:00,49.6,32.7,30.10,WNW,291,3.8,10.4,52,0.00,CLR,,0.00,608.0,WeatherDisplay:10.37,2013-01-10 19:40:00,
2013-01-10 11:45:00,50.1,32.2,30.09,WNW,284,4.8,11.5,50,0.00,CLR,,0.00,499.0,WeatherDisplay:10.37,2013-01-10 19:45:00,
2013-01-10 11:50:00,49.7,32.3,30.09,NNE,22,2.5,4.6,51,0.00,CLR,,0.00,584.0,WeatherDisplay:10.37,2013-01-10 19:50:00,
2013-01-10 11:55:00,49.8,32.4,30.09,North,9,3.0,6.9,51,0.00,CLR,,0.00,582.0,WeatherDisplay:10.37,2013-01-10 19:55:00,
2013-01-10 12:00:00,49.6,32.2,30.09,NNE,28,3.4,8.0,51,0.00,CLR,,0.00,577.0,WeatherDisplay:10.37,2013-01-10 20:00:00,
2013-01-10 12:05:00,49.9,32.5,30.09,NW,325,3.0,8.1,51,0.00,CLR,,0.00,577.0,WeatherDisplay:10.37,2013-01-10 20:05:00,
2013-01-10 12:10:00,49.5,32.1,30.08,NW,320,3.0,5.8,51,0.00,CLR,,0.00,578.0,WeatherDisplay:10.37,2013-01-10 20:10:00,
2013-01-10 12:15:00,49.7,32.3,30.08,WNW,302,3.3,6.9,51,0.00,CLR,,0.00,582.0,WeatherDisplay:10.37,2013-01-10 20:15:00,
2013-01-10 12:20:00,49.6,32.2,30.08,ENE,61,2.6,3.5,51,0.00,CLR,,0.00,578.0,WeatherDisplay:10.37,2013-01-10 20:20:00,
2013-01-10 12:25:00,49.9,33.0,30.08,NW,321,2.0,4.6,52,0.00,CLR,,0.00,577.0,WeatherDisplay:10.37,2013-01-10 20:25:00,
2013-01-10 12:30:00,50.5,33.0,30.07,North,10,2.9,8.1,51,0.00,CLR,,0.00,577.0,WeatherDisplay:10.37,2013-01-10 20:30:00,
2013-01-10 12:36:00,50.2,32.8,30.08,NNW,336,3.0,8.0,51,0.00,CLR,,0.00,587.0,WeatherDisplay:10.37,2013-01-10 20:36:00,
2013-01-10 12:41:00,50.6,32.6,30.08,West,277,3.2,6.9,50,0.00,CLR,,0.00,585.0,WeatherDisplay:10.37,2013-01-10 20:41:00,
2013-01-10 12:46:00,50.4,32.4,30.08,North,11,8.9,12.7,50,0.00,CLR,,0.00,580.0,WeatherDisplay:10.37,2013-01-10 20:46:00,
2013-01-10 12:51:00,50.6,33.1,30.07,NW,324,1.5,4.6,51,0.00,CLR,,0.00,585.0,WeatherDisplay:10.37,2013-01-10 20:51:00,
2013-01-10 12:56:00,50.9,33.4,30.07,North,351,4.8,9.2,51,0.00,CLR,,0.00,517.0,WeatherDisplay:10.37,2013-01-10 20:56:00,
2013-01-10 13:01:00,50.1,32.7,30.07,NNE,13,6.7,8.1,51,0.00,CLR,,0.00,571.0,WeatherDisplay:10.37,2013-01-10 21:01:00,
2013-01-10 13:06:00,50.8,32.8,30.07,NW,325,4.1,4.6,50,0.00,CLR,,0.00,573.0,WeatherDisplay:10.37,2013-01-10 21:06:00,
2013-01-10 13:11:00,50.8,32.8,30.07,NNE,22,5.5,9.2,50,0.00,CLR,,0.00,566.0,WeatherDisplay:10.37,2013-01-10 21:11:00,
2013-01-10 13:16:00,50.6,32.6,30.07,West,267,7.4,8.1,50,0.00,CLR,,0.00,540.0,WeatherDisplay:10.37,2013-01-10 21:16:00,
2013-01-10 13:21:00,50.1,32.7,30.07,NNW,334,3.8,8.1,51,0.00,CLR,,0.00,577.0,WeatherDisplay:10.37,2013-01-10 21:21:00,
2013-01-10 13:26:00,50.0,32.6,30.07,WNW,296,1.9,4.6,51,0.00,CLR,,0.00,550.0,WeatherDisplay:10.37,2013-01-10 21:26:00,
2013-01-10 13:31:00,50.4,33.4,30.07,WSW,257,1.8,6.9,52,0.00,CLR,,0.00,547.0,WeatherDisplay:10.37,2013-01-10 21:31:00,
2013-01-10 13:36:00,50.7,32.7,30.07,North,355,3.4,9.2,50,0.00,CLR,,0.00,540.0,WeatherDisplay:10.37,2013-01-10 21:36:00,
2013-01-10 13:41:00,50.8,33.3,30.07,North,9,4.4,5.0,51,0.00,CLR,,0.00,531.0,WeatherDisplay:10.37,2013-01-10 21:41:00,
2013-01-10 13:46:00,51.0,33.5,30.07,North,360,3.2,8.1,51,0.00,CLR,,0.00,529.0,WeatherDisplay:10.37,2013-01-10 21:46:00,
2013-01-10 13:51:00,51.0,33.0,30.07,West,279,2.5,3.5,50,0.00,CLR,,0.00,541.0,WeatherDisplay:10.37,2013-01-10 21:51:00,
2013-01-10 13:56:00,51.1,34.5,30.07,NW,309,2.6,3.5,53,0.00,CLR,,0.00,570.0,WeatherDisplay:10.37,2013-01-10 21:56:00,
2013-01-10 14:01:00,50.9,33.9,30.07,WSW,250,2.5,5.8,52,0.00,CLR,,0.00,497.0,WeatherDisplay:10.37,2013-01-10 22:01:00,
2013-01-10 14:06:00,50.9,34.4,30.07,WSW,256,1.9,5.8,53,0.00,CLR,,0.00,494.0,WeatherDisplay:10.37,2013-01-10 22:06:00,
2013-01-10 14:11:00,50.1,33.1,30.07,WNW,296,6.9,16.1,52,0.00,CLR,,0.00,485.0,WeatherDisplay:10.37,2013-01-10 22:11:00,
2013-01-10 14:16:00,50.3,33.3,30.07,SSE,163,3.5,6.9,52,0.00,CLR,,0.00,478.0,WeatherDisplay:10.37,2013-01-10 22:16:00,
2013-01-10 14:21:00,50.4,33.9,30.07,West,263,2.6,4.6,53,0.00,CLR,,0.00,455.0,WeatherDisplay:10.37,2013-01-10 22:21:00,
2013-01-10 14:26:00,50.1,33.6,30.07,North,355,2.3,3.5,53,0.00,CLR,,0.00,443.0,WeatherDisplay:10.37,2013-01-10 22:26:00,
2013-01-10 14:31:00,50.0,33.1,30.08,North,355,1.5,4.6,52,0.00,CLR,,0.00,441.0,WeatherDisplay:10.37,2013-01-10 22:31:00,
2013-01-10 14:36:00,49.7,33.2,30.08,NNW,346,2.8,8.1,53,0.00,CLR,,0.00,427.0,WeatherDisplay:10.37,2013-01-10 22:36:00,
2013-01-10 14:42:00,49.7,33.2,30.08,NNW,331,2.8,6.9,53,0.00,CLR,,0.00,415.0,WeatherDisplay:10.37,2013-01-10 22:42:00,
2013-01-10 14:48:00,49.3,33.3,30.08,NNW,346,2.3,6.9,54,0.00,CLR,,0.00,408.0,WeatherDisplay:10.37,2013-01-10 22:48:00,
2013-01-10 14:54:00,49.2,33.7,30.08,West,261,1.0,3.5,55,0.00,CLR,,0.00,374.0,WeatherDisplay:10.37,2013-01-10 22:54:00,
2013-01-10 14:59:00,49.5,34.0,30.08,WNW,290,1.8,6.0,55,0.00,CLR,,0.00,322.0,WeatherDisplay:10.37,2013-01-10 22:59:00,
2013-01-10 15:05:00,49.3,34.3,30.08,West,274,2.3,10.4,56,0.00,CLR,,0.00,297.0,WeatherDisplay:10.37,2013-01-10 23:05:00,
2013-01-10 15:10:00,49.1,34.1,30.08,NW,317,5.6,10.4,56,0.00,SCT,,0.00,155.0,WeatherDisplay:10.37,2013-01-10 23:10:00,
2013-01-10 15:15:00,48.9,34.3,30.08,WNW,294,1.4,5.8,57,0.00,BKN,,0.00,102.0,WeatherDisplay:10.37,2013-01-10 23:15:00,
2013-01-10 15:20:00,49.0,34.4,30.08,WNW,286,5.9,8.1,57,0.00,CLR,,0.00,216.0,WeatherDisplay:10.37,2013-01-10 23:20:00,
2013-01-10 15:25:00,49.0,34.4,30.08,SSW,202,2.2,3.5,57,0.00,BKN,,0.00,109.0,WeatherDisplay:10.37,2013-01-10 23:25:00,
2013-01-10 15:30:00,48.8,34.2,30.08,NNW,344,3.3,6.9,57,0.00,SCT,,0.00,176.0,WeatherDisplay:10.37,2013-01-10 23:30:00,
2013-01-10 15:35:00,48.6,34.5,30.08,WNW,291,2.4,6.9,58,0.00,SCT,,0.00,130.0,WeatherDisplay:10.37,2013-01-10 23:35:00,
2013-01-10 15:40:00,48.4,34.3,30.08,NNW,327,3.9,4.6,58,0.00,CLR,,0.00,178.0,WeatherDisplay:10.37,2013-01-10 23:40:00,
2013-01-10 15:45:00,48.3,34.2,30.08,WNW,288,4.6,6.0,58,0.00,BKN,,0.00,102.0,WeatherDisplay:10.37,2013-01-10 23:45:00,
2013-01-10 15:50:00,48.0,34.3,30.08,NW,306,3.2,11.5,59,0.00,FEW,,0.00,118.0,WeatherDisplay:10.37,2013-01-10 23:50:00,
2013-01-10 15:56:00,47.8,35.0,30.09,West,267,0.7,9.2,61,0.00,BKN,,0.00,62.0,WeatherDisplay:10.37,2013-01-10 23:56:00,
2013-01-10 16:01:00,47.6,34.4,30.08,West,259,0.5,3.0,60,0.00,SCT,,0.00,69.0,WeatherDisplay:10.37,2013-01-11 00:01:00,
2013-01-10 16:06:00,47.3,34.5,30.08,WSW,250,1.4,2.3,61,0.00,SCT,,0.00,53.0,WeatherDisplay:10.37,2013-01-11 00:06:00,
2013-01-10 16:11:00,47.2,34.8,30.09,WNW,299,3.7,8.1,62,0.00,BKN,,0.00,40.0,WeatherDisplay:10.37,2013-01-11 00:11:00,
2013-01-10 16:16:00,47.0,34.6,30.09,WNW,286,3.9,6.9,62,0.00,BKN,,0.00,23.0,WeatherDisplay:10.37,2013-01-11 00:16:00,
2013-01-10 16:21:00,46.8,34.9,30.09,WNW,287,3.3,9.2,63,0.00,BKN,,0.00,21.0,WeatherDisplay:10.37,2013-01-11 00:21:00,
2013-01-10 16:26:00,46.6,34.7,30.09,West,277,3.0,11.5,63,0.00,BKN,,0.00,19.0,WeatherDisplay:10.37,2013-01-11 00:26:00,
2013-01-10 16:32:00,46.3,34.4,30.09,West,281,4.1,8.1,63,0.00,BKN,,0.00,18.0,WeatherDisplay:10.37,2013-01-11 00:32:00,
2013-01-10 16:37:00,46.3,34.4,30.09,West,272,1.4,4.6,63,0.00,BKN,,0.00,16.0,WeatherDisplay:10.37,2013-01-11 00:37:00,
2013-01-10 16:43:00,46.1,34.6,30.09,West,271,4.4,6.9,64,0.00,BKN,,0.00,14.0,WeatherDisplay:10.37,2013-01-11 00:43:00,
2013-01-10 16:49:00,45.9,34.8,30.09,WNW,288,3.0,4.6,65,0.00,BKN,,0.00,11.0,WeatherDisplay:10.37,2013-01-11 00:49:00,
2013-01-10 16:55:00,45.7,34.6,30.09,West,273,2.0,3.5,65,0.00,SCT,,0.00,9.0,WeatherDisplay:10.37,2013-01-11 00:55:00,
2013-01-10 17:00:00,45.5,34.8,30.09,WSW,255,3.2,8.1,66,0.00,FEW,,0.00,7.0,WeatherDisplay:10.37,2013-01-11 01:00:00,
2013-01-10 17:05:00,45.3,34.6,30.09,West,270,2.6,6.9,66,0.00,,,0.00,5.0,WeatherDisplay:10.37,2013-01-11 01:05:00,
2013-01-10 17:10:00,45.2,34.5,30.09,WNW,296,6.5,6.5,66,0.00,,,0.00,0.0,WeatherDisplay:10.37,2013-01-11 01:10:00,
2013-01-10 17:16:00,45.1,34.8,30.10,WNW,290,3.0,8.0,67,0.00,,,0.00,0.0,WeatherDisplay:10.37,2013-01-11 01:16:00,
2013-01-10 17:21:00,44.9,34.6,30.10,WNW,284,0.1,3.5,67,0.00,,,0.00,0.0,WeatherDisplay:10.37,2013-01-11 01:21:00,
2013-01-10 17:26:00,44.8,34.9,30.10,West,269,2.5,3.5,68,0.00,,,0.00,0.0,WeatherDisplay:10.37,2013-01-11 01:26:00,
2013-01-10 17:31:00,44.7,34.8,30.10,West,268,2.6,4.0,68,0.00,,,0.00,0.0,WeatherDisplay:10.37,2013-01-11 01:31:00,
2013-01-10 17:36:00,44.6,34.7,30.10,West,274,1.7,5.8,68,0.00,,,0.00,0.0,WeatherDisplay:10.37,2013-01-11 01:36:00,
2013-01-10 17:41:00,44.5,34.6,30.10,West,265,0.1,4.6,68,0.00,,,0.00,0.0,WeatherDisplay:10.37,2013-01-11 01:41:00,
2013-01-10 17:46:00,44.5,34.6,30.10,WNW,292,1.8,1.8,68,0.00,,,0.00,0.0,WeatherDisplay:10.37,2013-01-11 01:46:00,
2013-01-10 17:51:00,44.5,35.0,30.11,WNW,286,0.7,4.6,69,0.00,,,0.00,0.0,WeatherDisplay:10.37,2013-01-11 01:51:00,
2013-01-10 17:56:00,44.4,34.9,30.11,West,273,2.1,3.5,69,0.00,,,0.00,0.0,WeatherDisplay:10.37,2013-01-11 01:56:00,
2013-01-10 18:01:00,44.4,34.9,30.11,West,262,0.9,3.5,69,0.00,,,0.00,0.0,WeatherDisplay:10.37,2013-01-11 02:01:00,
2013-01-10 18:06:00,44.3,34.8,30.11,NNW,339,1.4,3.5,69,0.00,,,0.00,0.0,WeatherDisplay:10.37,2013-01-11 02:06:00,
2013-01-10 18:11:00,44.3,34.8,30.11,NW,315,1.6,10.4,69,0.00,,,0.00,0.0,WeatherDisplay:10.37,2013-01-11 02:11:00,
2013-01-10 18:16:00,44.3,34.8,30.11,NW,314,0.2,1.1,69,0.00,,,0.00,0.0,WeatherDisplay:10.37,2013-01-11 02:16:00,
2013-01-10 18:21:00,44.1,34.6,30.11,NNW,337,1.2,5.8,69,0.00,,,0.00,0.0,WeatherDisplay:10.37,2013-01-11 02:21:00,
2013-01-10 18:26:00,44.0,34.5,30.11,WNW,286,0.1,3.5,69,0.00,,,0.00,0.0,WeatherDisplay:10.37,2013-01-11 02:26:00,
2013-01-10 18:31:00,44.0,34.5,30.12,West,273,2.6,5.8,69,0.00,,,0.00,0.0,WeatherDisplay:10.37,2013-01-11 02:31:00,
2013-01-10 18:36:00,44.0,34.5,30.12,NW,311,0.8,5.8,69,0.00,,,0.00,0.0,WeatherDisplay:10.37,2013-01-11 02:36:00,
2013-01-10 18:41:00,43.9,34.0,30.12,North,355,1.5,3.5,68,0.00,,,0.00,0.0,WeatherDisplay:10.37,2013-01-11 02:41:00,
2013-01-10 18:46:00,43.9,34.0,30.12,NNW,329,0.8,3.5,68,0.00,,,0.00,0.0,WeatherDisplay:10.37,2013-01-11 02:46:00,
2013-01-10 18:52:00,43.9,33.6,30.13,West,269,2.3,5.0,67,0.00,,,0.00,0.0,WeatherDisplay:10.37,2013-01-11 02:52:00,
2013-01-10 18:57:00,43.9,33.6,30.12,NNW,330,3.4,11.5,67,0.00,,,0.00,0.0,WeatherDisplay:10.37,2013-01-11 02:57:00,
2013-01-10 19:02:00,44.1,33.1,30.13,West,277,4.0,10.4,65,0.00,CLR,,0.00,0.0,WeatherDisplay:10.37,2013-01-11 03:02:00,
2013-01-10 19:07:00,44.1,33.1,30.12,West,274,4.7,12.7,65,0.00,CLR,,0.00,0.0,WeatherDisplay:10.37,2013-01-11 03:07:00,
2013-01-10 19:13:00,44.1,32.7,30.13,North,355,3.4,6.9,64,0.00,CLR,,0.00,0.0,WeatherDisplay:10.37,2013-01-11 03:13:00,
2013-01-10 19:18:00,44.0,32.6,30.13,NNW,346,1.5,3.5,64,0.00,CLR,,0.00,0.0,WeatherDisplay:10.37,2013-01-11 03:18:00,
2013-01-10 19:24:00,44.0,32.2,30.13,West,277,2.9,3.5,63,0.00,CLR,,0.00,0.0,WeatherDisplay:10.37,2013-01-11 03:24:00,
2013-01-10 19:29:00,43.9,31.7,30.13,West,279,4.0,5.8,62,0.00,CLR,,0.00,0.0,WeatherDisplay:10.37,2013-01-11 03:29:00,
2013-01-10 19:35:00,43.8,31.2,30.13,WNW,284,0.5,3.5,61,0.00,CLR,,0.00,0.0,WeatherDisplay:10.37,2013-01-11 03:35:00,
2013-01-10 19:40:00,43.7,31.1,30.13,NNW,329,1.8,3.5,61,0.00,CLR,,0.00,0.0,WeatherDisplay:10.37,2013-01-11 03:40:00,
2013-01-10 19:45:00,43.6,30.6,30.14,WNW,285,1.2,3.5,60,0.00,CLR,,0.00,0.0,WeatherDisplay:10.37,2013-01-11 03:45:00,
2013-01-10 19:50:00,43.6,30.6,30.14,North,355,2.9,8.1,60,0.00,CLR,,0.00,0.0,WeatherDisplay:10.37,2013-01-11 03:50:00,
2013-01-10 19:55:00,43.5,30.5,30.14,NNW,338,0.2,2.0,60,0.00,CLR,,0.00,0.0,WeatherDisplay:10.37,2013-01-11 03:55:00,
2013-01-10 20:00:00,43.4,30.4,30.14,WNW,286,0.9,4.6,60,0.00,CLR,,0.00,0.0,WeatherDisplay:10.37,2013-01-11 04:00:00,
2013-01-10 20:05:00,43.3,30.3,30.14,West,279,3.9,7.0,60,0.00,CLR,,0.00,0.0,WeatherDisplay:10.37,2013-01-11 04:05:00,
2013-01-10 20:10:00,43.2,30.6,30.14,WNW,283,2.5,4.6,61,0.00,CLR,,0.00,0.0,WeatherDisplay:10.37,2013-01-11 04:10:00,
2013-01-10 20:15:00,43.2,30.2,30.14,WNW,302,4.2,5.8,60,0.00,CLR,,0.00,0.0,WeatherDisplay:10.37,2013-01-11 04:15:00,
2013-01-10 20:20:00,43.1,30.1,30.14,WNW,297,2.8,9.2,60,0.00,CLR,,0.00,0.0,WeatherDisplay:10.37,2013-01-11 04:20:00,
2013-01-10 20:25:00,43.0,30.5,30.15,West,279,1.7,3.5,61,0.00,CLR,,0.00,0.0,WeatherDisplay:10.37,2013-01-11 04:25:00,
2013-01-10 20:30:00,43.0,30.5,30.15,NNW,346,4.5,5.8,61,0.00,CLR,,0.00,0.0,WeatherDisplay:10.37,2013-01-11 04:30:00,
2013-01-10 20:35:00,42.9,30.4,30.15,West,269,2.2,6.9,61,0.00,CLR,,0.00,0.0,WeatherDisplay:10.37,2013-01-11 04:35:00,
2013-01-10 20:40:00,42.8,30.7,30.15,West,277,0.7,4.6,62,0.00,CLR,,0.00,0.0,WeatherDisplay:10.37,2013-01-11 04:40:00,
2013-01-10 20:45:00,42.7,31.0,30.15,NNW,329,1.9,4.6,63,0.00,CLR,,0.00,0.0,WeatherDisplay:10.37,2013-01-11 04:45:00,
2013-01-10 20:50:00,42.6,30.9,30.15,WNW,284,2.3,4.6,63,0.00,CLR,,0.00,0.0,WeatherDisplay:10.37,2013-01-11 04:50:00,
2013-01-10 20:55:00,42.6,30.9,30.15,WSW,253,0.4,8.1,63,0.00,CLR,,0.00,0.0,WeatherDisplay:10.37,2013-01-11 04:55:00,
2013-01-10 21:03:00,42.8,31.1,30.15,West,263,3.3,4.6,63,0.00,CLR,,0.00,0.0,WeatherDisplay:10.37,2013-01-11 05:03:00,
2013-01-10 21:05:00,42.8,31.1,30.15,West,279,3.4,4.6,63,0.00,CLR,,0.00,0.0,WeatherDisplay:10.37,2013-01-11 05:05:00,
2013-01-10 21:08:00,42.9,31.2,30.15,WNW,291,3.7,5.8,63,0.00,CLR,,0.00,0.0,WeatherDisplay:10.37,2013-01-11 05:08:00,
2013-01-10 21:13:00,42.8,31.1,30.15,NNW,348,4.5,6.9,63,0.00,CLR,,0.00,0.0,WeatherDisplay:10.37,2013-01-11 05:13:00,
2013-01-10 21:18:00,42.7,31.0,30.16,WSW,239,0.6,3.5,63,0.00,CLR,,0.00,0.0,WeatherDisplay:10.37,2013-01-11 05:18:00,
2013-01-10 21:23:00,42.6,31.3,30.16,West,271,2.4,3.5,64,0.00,CLR,,0.00,0.0,WeatherDisplay:10.37,2013-01-11 05:23:00,
2013-01-10 21:28:00,42.7,31.4,30.16,WSW,248,1.3,3.5,64,0.00,CLR,,0.00,0.0,WeatherDisplay:10.37,2013-01-11 05:28:00,
2013-01-10 21:29:00,42.7,31.4,30.16,NW,325,3.0,4.6,64,0.00,CLR,,0.00,0.0,WeatherDisplay:10.37,2013-01-11 05:29:00,
2013-01-10 21:34:00,42.8,31.1,30.16,West,264,1.8,3.5,63,0.00,CLR,,0.00,0.0,WeatherDisplay:10.37,2013-01-11 05:34:00,
2013-01-10 21:39:00,42.6,30.9,30.16,WSW,258,0.6,5.8,63,0.00,CLR,,0.00,0.0,WeatherDisplay:10.37,2013-01-11 05:39:00,
2013-01-10 21:44:00,42.6,30.9,30.16,West,281,2.0,9.2,63,0.00,CLR,,0.00,0.0,WeatherDisplay:10.37,2013-01-11 05:44:00,
2013-01-10 21:49:00,42.6,30.9,30.16,West,265,2.2,8.1,63,0.00,CLR,,0.00,0.0,WeatherDisplay:10.37,2013-01-11 05:49:00,
2013-01-10 21:54:00,42.6,30.5,30.16,ESE,109,2.4,6.9,62,0.00,CLR,,0.00,0.0,WeatherDisplay:10.37,2013-01-11 05:54:00,
2013-01-10 21:59:00,42.6,30.5,30.17,WSW,249,5.3,10.4,62,0.00,CLR,,0.00,0.0,WeatherDisplay:10.37,2013-01-11 05:59:00,
2013-01-10 22:04:00,42.7,30.6,30.17,West,275,4.4,8.1,62,0.00,CLR,,0.00,0.0,WeatherDisplay:10.37,2013-01-11 06:04:00,
2013-01-10 22:09:00,42.7,30.2,30.17,West,271,3.4,6.9,61,0.00,CLR,,0.00,0.0,WeatherDisplay:10.37,2013-01-11 06:09:00,
2013-01-10 22:14:00,42.6,30.1,30.17,WNW,289,3.8,5.8,61,0.00,CLR,,0.00,0.0,WeatherDisplay:10.37,2013-01-11 06:14:00,
2013-01-10 22:19:00,42.6,30.1,30.17,WNW,286,0.3,2.3,61,0.00,CLR,,0.00,0.0,WeatherDisplay:10.37,2013-01-11 06:19:00,
2013-01-10 22:24:00,42.3,30.2,30.17,West,281,1.0,4.6,62,0.00,CLR,,0.00,0.0,WeatherDisplay:10.37,2013-01-11 06:24:00,
2013-01-10 22:29:00,42.1,30.0,30.17,West,277,3.6,6.0,62,0.00,CLR,,0.00,0.0,WeatherDisplay:10.37,2013-01-11 06:29:00,
2013-01-10 22:34:00,42.2,30.1,30.17,West,275,3.1,5.8,62,0.00,CLR,,0.00,0.0,WeatherDisplay:10.37,2013-01-11 06:34:00,
2013-01-10 22:39:00,42.2,29.7,30.17,West,280,0.1,1.1,61,0.00,CLR,,0.00,0.0,WeatherDisplay:10.37,2013-01-11 06:39:00,
2013-01-10 22:44:00,42.2,29.7,30.17,West,272,1.1,1.1,61,0.00,CLR,,0.00,0.0,WeatherDisplay:10.37,2013-01-11 06:44:00,
2013-01-10 22:49:00,42.2,29.7,30.17,West,271,0.3,1.1,61,0.00,CLR,,0.00,0.0,WeatherDisplay:10.37,2013-01-11 06:49:00,
2013-01-10 22:54:00,42.2,29.7,30.18,West,273,2.7,9.2,61,0.00,CLR,,0.00,0.0,WeatherDisplay:10.37,2013-01-11 06:54:00,
2013-01-10 22:59:00,42.3,29.4,30.18,West,276,3.0,4.0,60,0.00,CLR,,0.00,0.0,WeatherDisplay:10.37,2013-01-11 06:59:00,
2013-01-10 23:04:00,42.3,29.8,30.18,West,273,1.2,4.6,61,0.00,CLR,,0.00,0.0,WeatherDisplay:10.37,2013-01-11 07:04:00,
2013-01-10 23:09:00,42.2,29.7,30.18,WNW,284,3.0,4.6,61,0.00,CLR,,0.00,0.0,WeatherDisplay:10.37,2013-01-11 07:09:00,
2013-01-10 23:14:00,42.2,30.1,30.18,WNW,292,6.4,11.5,62,0.00,CLR,,0.00,0.0,WeatherDisplay:10.37,2013-01-11 07:14:00,
2013-01-10 23:19:00,42.4,29.9,30.18,WNW,287,2.9,11.5,61,0.00,CLR,,0.00,0.0,WeatherDisplay:10.37,2013-01-11 07:19:00,
2013-01-10 23:24:00,42.3,29.8,30.18,WSW,250,2.3,3.5,61,0.00,CLR,,0.00,0.0,WeatherDisplay:10.37,2013-01-11 07:24:00,
2013-01-10 23:29:00,42.3,29.8,30.18,North,360,1.2,3.5,61,0.00,CLR,,0.00,0.0,WeatherDisplay:10.37,2013-01-11 07:29:00,
2013-01-10 23:34:00,42.3,29.8,30.19,North,5,2.3,4.6,61,0.00,CLR,,0.00,0.0,WeatherDisplay:10.37,2013-01-11 07:34:00,
2013-01-10 23:39:00,42.3,29.8,30.18,West,278,1.2,3.5,61,0.00,CLR,,0.00,0.0,WeatherDisplay:10.37,2013-01-11 07:39:00,
2013-01-10 23:44:00,42.1,30.0,30.19,NW,306,0.3,3.5,62,0.00,CLR,,0.00,0.0,WeatherDisplay:10.37,2013-01-11 07:44:00,
2013-01-10 23:49:00,42.0,29.9,30.18,NE,43,0.2,1.1,62,0.00,CLR,,0.00,0.0,WeatherDisplay:10.37,2013-01-11 07:49:00,
2013-01-10 23:54:00,41.8,29.7,30.18,NW,322,0.3,2.0,62,0.00,CLR,,0.00,0.0,WeatherDisplay:10.37,2013-01-11 07:54:00,
2013-01-10 23:59:00,41.6,29.5,30.18,NW,315,0.1,2.3,62,0.00,CLR,,0.00,0.0,WeatherDisplay:10.37,2013-01-11 07:59:00,